Naples, South Dakota
Current Conditions -  °F | °C
As of 2:53 AM on Friday 24 Oct 2014 (Local Time) from KATY Reporting Station
Clear Clear  
Wind Chill: 43°   Ceiling: Unl
Heat Index: 47°   Visibility: 10mi
Dew Point: 44°   Wind: 8mph
Humidity: 90%   Direction: 150°SSE
Pressure: 29.85"   Gusts: NA
Location:  44.6746°N, 97.5528°W
Report Text: KATY 240753Z AUTO 15007KT 10SM CLR 08/07 A2985 RMK AO2 SLP107 T00830067
Loading
Personal Weather Stations






























Interactive Weather Map
Tropical Storm Tracking
New forecast layout! Learn more

10-Day Weather Forecast

Advertisements
Track Severe Weather on mobile